sensor_id;sensor_type;location;lat;lon;timestamp;P1;durP1;ratioP1;P2;durP2;ratioP2
8654;SDS011;13500;52.514;13.462;2024-03-23T00:55:11;13.03;;;4.43;;
8654;SDS011;13500;52.514;13.462;2024-03-23T00:57:38;23.00;;;5.00;;
8654;SDS011;13500;52.514;13.462;2024-03-23T01:02:32;15.03;;;4.43;;
8654;SDS011;13500;52.514;13.462;2024-03-23T01:05:03;19.03;;;4.30;;
8654;SDS011;13500;52.514;13.462;2024-03-23T01:07:30;16.17;;;4.57;;
8654;SDS011;13500;52.514;13.462;2024-03-23T01:09:59;19.73;;;4.40;;
8654;SDS011;13500;52.514;13.462;2024-03-23T01:12:26;16.90;;;3.67;;
8654;SDS011;13500;52.514;13.462;2024-03-23T01:14:53;19.97;;;4.40;;
8654;SDS011;13500;52.514;13.462;2024-03-23T01:17:21;19.83;;;4.33;;
8654;SDS011;13500;52.514;13.462;2024-03-23T01:19:48;14.03;;;3.93;;
8654;SDS011;13500;52.514;13.462;2024-03-23T01:22:15;15.60;;;3.90;;
8654;SDS011;13500;52.514;13.462;2024-03-23T01:24:43;16.33;;;3.83;;
8654;SDS011;13500;52.514;13.462;2024-03-23T01:27:11;17.20;;;3.90;;
8654;SDS011;13500;52.514;13.462;2024-03-23T01:29:41;14.60;;;4.37;;
8654;SDS011;13500;52.514;13.462;2024-03-23T01:32:09;14.20;;;3.70;;
8654;SDS011;13500;52.514;13.462;2024-03-23T01:34:36;13.67;;;4.30;;
8654;SDS011;13500;52.514;13.462;2024-03-23T01:37:03;16.80;;;4.07;;
8654;SDS011;13500;52.514;13.462;2024-03-23T01:39:31;13.80;;;4.10;;
8654;SDS011;13500;52.514;13.462;2024-03-23T01:41:58;16.73;;;4.17;;
8654;SDS011;13500;52.514;13.462;2024-03-23T01:44:27;12.77;;;4.17;;
8654;SDS011;13500;52.514;13.462;2024-03-23T01:46:54;19.33;;;4.60;;
8654;SDS011;13500;52.514;13.462;2024-03-23T01:49:24;21.27;;;4.60;;
8654;SDS011;13500;52.514;13.462;2024-03-23T01:51:53;17.03;;;4.40;;
8654;SDS011;13500;52.514;13.462;2024-03-23T01:54:21;18.57;;;4.83;;
8654;SDS011;13500;52.514;13.462;2024-03-23T01:56:49;16.30;;;4.33;;
8654;SDS011;13500;52.514;13.462;2024-03-23T01:59:16;24.20;;;4.90;;
8654;SDS011;13500;52.514;13.462;2024-03-23T02:01:44;17.90;;;4.43;;
8654;SDS011;13500;52.514;13.462;2024-03-23T02:04:14;21.70;;;5.17;;
8654;SDS011;13500;52.514;13.462;2024-03-23T02:06:40;18.90;;;4.53;;
8654;SDS011;13500;52.514;13.462;2024-03-23T02:09:08;16.80;;;4.43;;
8654;SDS011;13500;52.514;13.462;2024-03-23T02:11:35;18.47;;;4.53;;
8654;SDS011;13500;52.514;13.462;2024-03-23T02:14:03;18.80;;;4.63;;
8654;SDS011;13500;52.514;13.462;2024-03-23T02:16:31;17.50;;;5.07;;
8654;SDS011;13500;52.514;13.462;2024-03-23T02:19:01;16.73;;;4.50;;
8654;SDS011;13500;52.514;13.462;2024-03-23T02:21:27;16.00;;;4.47;;
8654;SDS011;13500;52.514;13.462;2024-03-23T02:23:59;15.40;;;3.87;;
8654;SDS011;13500;52.514;13.462;2024-03-23T02:26:26;14.57;;;4.17;;
8654;SDS011;13500;52.514;13.462;2024-03-23T02:28:54;15.17;;;4.53;;
8654;SDS011;13500;52.514;13.462;2024-03-23T02:31:20;17.93;;;4.30;;
8654;SDS011;13500;52.514;13.462;2024-03-23T02:33:48;16.87;;;4.70;;
8654;SDS011;13500;52.514;13.462;2024-03-23T02:36:14;20.43;;;5.20;;
8654;SDS011;13500;52.514;13.462;2024-03-23T02:38:42;16.87;;;4.37;;
8654;SDS011;13500;52.514;13.462;2024-03-23T02:41:10;19.83;;;5.47;;
8654;SDS011;13500;52.514;13.462;2024-03-23T02:43:38;15.00;;;4.23;;
8654;SDS011;13500;52.514;13.462;2024-03-23T02:46:05;20.00;;;4.80;;
8654;SDS011;13500;52.514;13.462;2024-03-23T02:48:33;15.40;;;4.70;;
8654;SDS011;13500;52.514;13.462;2024-03-23T02:51:02;13.80;;;4.50;;
8654;SDS011;13500;52.514;13.462;2024-03-23T02:53:31;15.13;;;4.40;;
8654;SDS011;13500;52.514;13.462;2024-03-23T02:56:01;15.20;;;4.40;;
8654;SDS011;13500;52.514;13.462;2024-03-23T02:58:31;18.97;;;4.90;;
8654;SDS011;13500;52.514;13.462;2024-03-23T03:00:57;20.70;;;5.03;;
8654;SDS011;13500;52.514;13.462;2024-03-23T03:03:25;16.10;;;5.87;;
8654;SDS011;13500;52.514;13.462;2024-03-23T03:05:55;23.17;;;5.53;;
8654;SDS011;13500;52.514;13.462;2024-03-23T03:08:23;18.07;;;4.43;;
8654;SDS011;13500;52.514;13.462;2024-03-23T03:10:50;15.47;;;5.10;;
8654;SDS011;13500;52.514;13.462;2024-03-23T03:13:17;16.73;;;4.53;;
8654;SDS011;13500;52.514;13.462;2024-03-23T03:15:45;17.60;;;4.60;;
8654;SDS011;13500;52.514;13.462;2024-03-23T03:18:18;20.87;;;4.50;;
8654;SDS011;13500;52.514;13.462;2024-03-23T03:20:45;17.47;;;5.13;;
8654;SDS011;13500;52.514;13.462;2024-03-23T03:23:14;20.63;;;5.00;;
8654;SDS011;13500;52.514;13.462;2024-03-23T03:25:41;16.13;;;4.50;;
8654;SDS011;13500;52.514;13.462;2024-03-23T03:28:10;18.57;;;5.40;;
8654;SDS011;13500;52.514;13.462;2024-03-23T03:30:36;19.43;;;5.60;;
8654;SDS011;13500;52.514;13.462;2024-03-23T03:33:05;21.43;;;5.73;;
8654;SDS011;13500;52.514;13.462;2024-03-23T03:35:34;16.57;;;4.77;;
8654;SDS011;13500;52.514;13.462;2024-03-23T03:38:04;23.07;;;6.07;;
8654;SDS011;13500;52.514;13.462;2024-03-23T03:40:30;18.73;;;5.43;;
8654;SDS011;13500;52.514;13.462;2024-03-23T03:42:58;18.20;;;5.80;;
8654;SDS011;13500;52.514;13.462;2024-03-23T03:45:24;19.43;;;5.67;;
8654;SDS011;13500;52.514;13.462;2024-03-23T03:47:52;16.03;;;5.43;;
8654;SDS011;13500;52.514;13.462;2024-03-23T03:50:23;16.03;;;4.87;;
8654;SDS011;13500;52.514;13.462;2024-03-23T03:52:50;13.20;;;5.00;;
8654;SDS011;13500;52.514;13.462;2024-03-23T03:55:16;19.00;;;4.70;;
8654;SDS011;13500;52.514;13.462;2024-03-23T03:57:44;13.70;;;4.47;;
8654;SDS011;13500;52.514;13.462;2024-03-23T04:00:10;18.90;;;4.53;;
8654;SDS011;13500;52.514;13.462;2024-03-23T04:02:39;16.83;;;4.27;;
8654;SDS011;13500;52.514;13.462;2024-03-23T04:05:08;13.77;;;3.90;;
8654;SDS011;13500;52.514;13.462;2024-03-23T04:07:37;19.47;;;4.90;;
8654;SDS011;13500;52.514;13.462;2024-03-23T04:10:05;14.27;;;3.70;;
8654;SDS011;13500;52.514;13.462;2024-03-23T04:12:34;12.80;;;3.83;;
8654;SDS011;13500;52.514;13.462;2024-03-23T04:15:00;16.87;;;4.37;;
8654;SDS011;13500;52.514;13.462;2024-03-23T04:17:30;14.37;;;3.93;;
8654;SDS011;13500;52.514;13.462;2024-03-23T04:19:59;8.73;;;3.80;;
8654;SDS011;13500;52.514;13.462;2024-03-23T04:22:28;16.20;;;4.07;;
8654;SDS011;13500;52.514;13.462;2024-03-23T04:24:57;15.53;;;4.20;;
8654;SDS011;13500;52.514;13.462;2024-03-23T04:27:24;14.20;;;3.20;;
8654;SDS011;13500;52.514;13.462;2024-03-23T04:29:51;13.97;;;3.40;;
8654;SDS011;13500;52.514;13.462;2024-03-23T04:32:19;11.27;;;3.00;;
8654;SDS011;13500;52.514;13.462;2024-03-23T04:34:46;8.93;;;3.07;;
8654;SDS011;13500;52.514;13.462;2024-03-23T04:37:14;12.00;;;3.43;;
8654;SDS011;13500;52.514;13.462;2024-03-23T04:39:42;9.50;;;3.10;;
8654;SDS011;13500;52.514;13.462;2024-03-23T04:42:11;8.30;;;2.90;;
8654;SDS011;13500;52.514;13.462;2024-03-23T04:44:41;8.83;;;2.57;;
8654;SDS011;13500;52.514;13.462;2024-03-23T04:47:10;8.73;;;2.70;;
8654;SDS011;13500;52.514;13.462;2024-03-23T04:49:38;11.40;;;2.97;;
8654;SDS011;13500;52.514;13.462;2024-03-23T04:52:06;10.17;;;2.97;;
8654;SDS011;13500;52.514;13.462;2024-03-23T04:54:33;9.30;;;2.77;;
8654;SDS011;13500;52.514;13.462;2024-03-23T04:57:02;8.90;;;2.97;;
8654;SDS011;13500;52.514;13.462;2024-03-23T04:59:30;8.77;;;2.90;;
8654;SDS011;13500;52.514;13.462;2024-03-23T05:01:57;11.60;;;2.73;;
8654;SDS011;13500;52.514;13.462;2024-03-23T05:04:25;7.47;;;2.40;;
8654;SDS011;13500;52.514;13.462;2024-03-23T05:06:52;8.43;;;2.43;;
8654;SDS011;13500;52.514;13.462;2024-03-23T05:09:22;9.87;;;2.43;;
8654;SDS011;13500;52.514;13.462;2024-03-23T05:11:48;7.73;;;2.37;;
8654;SDS011;13500;52.514;13.462;2024-03-23T05:14:17;7.67;;;2.80;;
8654;SDS011;13500;52.514;13.462;2024-03-23T05:16:45;7.63;;;2.80;;
8654;SDS011;13500;52.514;13.462;2024-03-23T05:19:12;5.63;;;2.20;;
8654;SDS011;13500;52.514;13.462;2024-03-23T05:21:39;5.93;;;2.57;;
8654;SDS011;13500;52.514;13.462;2024-03-23T05:24:09;5.50;;;2.07;;
8654;SDS011;13500;52.514;13.462;2024-03-23T05:26:37;7.23;;;2.40;;
8654;SDS011;13500;52.514;13.462;2024-03-23T05:29:04;7.87;;;2.50;;
8654;SDS011;13500;52.514;13.462;2024-03-23T05:31:37;7.30;;;2.30;;
8654;SDS011;13500;52.514;13.462;2024-03-23T05:34:08;4.90;;;2.23;;
8654;SDS011;13500;52.514;13.462;2024-03-23T05:36:36;7.53;;;2.07;;
8654;SDS011;13500;52.514;13.462;2024-03-23T05:39:03;8.30;;;2.33;;
8654;SDS011;13500;52.514;13.462;2024-03-23T05:41:31;8.73;;;2.97;;
8654;SDS011;13500;52.514;13.462;2024-03-23T05:43:58;4.53;;;1.90;;
8654;SDS011;13500;52.514;13.462;2024-03-23T05:46:26;9.73;;;2.50;;
8654;SDS011;13500;52.514;13.462;2024-03-23T05:48:53;11.57;;;2.97;;
8654;SDS011;13500;52.514;13.462;2024-03-23T05:51:27;7.63;;;2.60;;
8654;SDS011;13500;52.514;13.462;2024-03-23T05:53:55;8.37;;;2.77;;
8654;SDS011;13500;52.514;13.462;2024-03-23T05:56:23;10.00;;;2.87;;
8654;SDS011;13500;52.514;13.462;2024-03-23T05:58:51;10.30;;;3.10;;
8654;SDS011;13500;52.514;13.462;2024-03-23T06:01:18;8.67;;;3.23;;
8654;SDS011;13500;52.514;13.462;2024-03-23T06:03:45;10.40;;;3.50;;
8654;SDS011;13500;52.514;13.462;2024-03-23T06:06:12;11.40;;;3.87;;
8654;SDS011;13500;52.514;13.462;2024-03-23T06:08:40;9.93;;;3.53;;
8654;SDS011;13500;52.514;13.462;2024-03-23T06:11:08;9.43;;;3.23;;
8654;SDS011;13500;52.514;13.462;2024-03-23T06:13:35;7.60;;;3.37;;
8654;SDS011;13500;52.514;13.462;2024-03-23T06:16:03;10.43;;;4.00;;
8654;SDS011;13500;52.514;13.462;2024-03-23T06:18:29;10.00;;;3.77;;
8654;SDS011;13500;52.514;13.462;2024-03-23T06:20:57;11.27;;;3.80;;
8654;SDS011;13500;52.514;13.462;2024-03-23T06:23:24;9.07;;;3.50;;
8654;SDS011;13500;52.514;13.462;2024-03-23T06:25:54;10.77;;;3.33;;
8654;SDS011;13500;52.514;13.462;2024-03-23T06:28:20;9.67;;;3.60;;
8654;SDS011;13500;52.514;13.462;2024-03-23T06:30:48;10.53;;;4.03;;
8654;SDS011;13500;52.514;13.462;2024-03-23T06:33:14;8.93;;;3.77;;
8654;SDS011;13500;52.514;13.462;2024-03-23T06:35:42;8.53;;;3.50;;
8654;SDS011;13500;52.514;13.462;2024-03-23T06:38:09;12.60;;;4.20;;
8654;SDS011;13500;52.514;13.462;2024-03-23T06:40:37;8.20;;;3.60;;
8654;SDS011;13500;52.514;13.462;2024-03-23T06:43:06;17.83;;;4.17;;
8654;SDS011;13500;52.514;13.462;2024-03-23T06:45:33;10.07;;;3.90;;
8654;SDS011;13500;52.514;13.462;2024-03-23T06:47:59;9.47;;;2.87;;
8654;SDS011;13500;52.514;13.462;2024-03-23T06:50:26;9.43;;;3.60;;
8654;SDS011;13500;52.514;13.462;2024-03-23T06:52:57;7.60;;;3.53;;
8654;SDS011;13500;52.514;13.462;2024-03-23T06:55:25;6.90;;;3.57;;
8654;SDS011;13500;52.514;13.462;2024-03-23T06:57:55;13.07;;;3.60;;
8654;SDS011;13500;52.514;13.462;2024-03-23T07:00:24;8.90;;;3.10;;
8654;SDS011;13500;52.514;13.462;2024-03-23T07:02:51;9.67;;;3.10;;
8654;SDS011;13500;52.514;13.462;2024-03-23T07:05:19;8.30;;;2.93;;
8654;SDS011;13500;52.514;13.462;2024-03-23T07:07:46;7.93;;;2.80;;
8654;SDS011;13500;52.514;13.462;2024-03-23T07:10:14;10.70;;;2.70;;
8654;SDS011;13500;52.514;13.462;2024-03-23T07:12:40;10.77;;;3.00;;
8654;SDS011;13500;52.514;13.462;2024-03-23T07:15:09;10.13;;;3.03;;
8654;SDS011;13500;52.514;13.462;2024-03-23T07:17:38;9.00;;;3.10;;
8654;SDS011;13500;52.514;13.462;2024-03-23T07:20:06;9.40;;;3.00;;
8654;SDS011;13500;52.514;13.462;2024-03-23T07:22:36;8.23;;;2.60;;
8654;SDS011;13500;52.514;13.462;2024-03-23T07:25:05;6.60;;;3.00;;
8654;SDS011;13500;52.514;13.462;2024-03-23T07:27:32;6.27;;;2.60;;
8654;SDS011;13500;52.514;13.462;2024-03-23T07:30:00;10.07;;;3.40;;
8654;SDS011;13500;52.514;13.462;2024-03-23T07:32:27;7.67;;;3.20;;
8654;SDS011;13500;52.514;13.462;2024-03-23T07:34:55;10.33;;;3.13;;
8654;SDS011;13500;52.514;13.462;2024-03-23T07:37:22;7.13;;;2.60;;
8654;SDS011;13500;52.514;13.462;2024-03-23T07:39:49;9.00;;;2.80;;
8654;SDS011;13500;52.514;13.462;2024-03-23T07:42:17;7.80;;;2.97;;
8654;SDS011;13500;52.514;13.462;2024-03-23T07:44:45;9.43;;;3.03;;
8654;SDS011;13500;52.514;13.462;2024-03-23T07:47:12;9.30;;;3.30;;
8654;SDS011;13500;52.514;13.462;2024-03-23T07:49:42;10.93;;;3.93;;
8654;SDS011;13500;52.514;13.462;2024-03-23T07:52:11;11.40;;;3.20;;
8654;SDS011;13500;52.514;13.462;2024-03-23T07:54:38;10.13;;;3.10;;
8654;SDS011;13500;52.514;13.462;2024-03-23T07:57:04;7.90;;;3.03;;
8654;SDS011;13500;52.514;13.462;2024-03-23T07:59:32;9.93;;;2.87;;
8654;SDS011;13500;52.514;13.462;2024-03-23T08:01:59;7.73;;;2.60;;
8654;SDS011;13500;52.514;13.462;2024-03-23T08:04:27;8.20;;;2.50;;
8654;SDS011;13500;52.514;13.462;2024-03-23T08:06:55;7.43;;;2.73;;
8654;SDS011;13500;52.514;13.462;2024-03-23T08:09:24;6.87;;;2.70;;
8654;SDS011;13500;52.514;13.462;2024-03-23T08:11:50;5.43;;;2.40;;
8654;SDS011;13500;52.514;13.462;2024-03-23T08:14:18;5.77;;;2.20;;
8654;SDS011;13500;52.514;13.462;2024-03-23T08:16:46;6.73;;;2.83;;
8654;SDS011;13500;52.514;13.462;2024-03-23T08:19:15;8.90;;;2.57;;
8654;SDS011;13500;52.514;13.462;2024-03-23T08:21:41;8.67;;;2.43;;
8654;SDS011;13500;52.514;13.462;2024-03-23T08:24:10;8.13;;;2.50;;
8654;SDS011;13500;52.514;13.462;2024-03-23T08:26:38;9.60;;;3.20;;
8654;SDS011;13500;52.514;13.462;2024-03-23T08:29:09;6.60;;;2.50;;
8654;SDS011;13500;52.514;13.462;2024-03-23T08:31:36;7.23;;;2.73;;
8654;SDS011;13500;52.514;13.462;2024-03-23T08:34:04;7.23;;;2.47;;
8654;SDS011;13500;52.514;13.462;2024-03-23T08:36:31;6.63;;;2.47;;
8654;SDS011;13500;52.514;13.462;2024-03-23T08:39:03;6.57;;;2.60;;
8654;SDS011;13500;52.514;13.462;2024-03-23T08:41:29;7.40;;;2.80;;
8654;SDS011;13500;52.514;13.462;2024-03-23T08:44:02;6.20;;;2.50;;
8654;SDS011;13500;52.514;13.462;2024-03-23T08:46:29;5.77;;;2.20;;
8654;SDS011;13500;52.514;13.462;2024-03-23T08:48:57;6.57;;;2.80;;
8654;SDS011;13500;52.514;13.462;2024-03-23T08:51:23;6.43;;;2.60;;
8654;SDS011;13500;52.514;13.462;2024-03-23T08:53:52;5.20;;;2.30;;
8654;SDS011;13500;52.514;13.462;2024-03-23T08:56:19;7.70;;;2.40;;
8654;SDS011;13500;52.514;13.462;2024-03-23T08:58:46;11.27;;;3.30;;
8654;SDS011;13500;52.514;13.462;2024-03-23T09:01:15;10.83;;;2.70;;
8654;SDS011;13500;52.514;13.462;2024-03-23T09:03:43;9.27;;;3.30;;
8654;SDS011;13500;52.514;13.462;2024-03-23T09:06:12;11.23;;;3.20;;
8654;SDS011;13500;52.514;13.462;2024-03-23T09:08:43;8.77;;;3.03;;
8654;SDS011;13500;52.514;13.462;2024-03-23T09:11:10;6.77;;;2.23;;
8654;SDS011;13500;52.514;13.462;2024-03-23T09:13:39;8.67;;;3.03;;
8654;SDS011;13500;52.514;13.462;2024-03-23T09:16:07;9.07;;;2.87;;
8654;SDS011;13500;52.514;13.462;2024-03-23T09:18:38;5.27;;;2.67;;
8654;SDS011;13500;52.514;13.462;2024-03-23T09:21:09;6.73;;;2.47;;
8654;SDS011;13500;52.514;13.462;2024-03-23T09:23:42;9.60;;;2.80;;
8654;SDS011;13500;52.514;13.462;2024-03-23T09:26:12;4.67;;;2.37;;
8654;SDS011;13500;52.514;13.462;2024-03-23T09:28:40;5.63;;;2.20;;
8654;SDS011;13500;52.514;13.462;2024-03-23T09:31:07;7.00;;;3.40;;
8654;SDS011;13500;52.514;13.462;2024-03-23T09:33:35;8.00;;;2.57;;
8654;SDS011;13500;52.514;13.462;2024-03-23T09:36:04;5.63;;;2.77;;
8654;SDS011;13500;52.514;13.462;2024-03-23T09:38:33;5.43;;;1.67;;
8654;SDS011;13500;52.514;13.462;2024-03-23T09:41:00;5.60;;;1.70;;
8654;SDS011;13500;52.514;13.462;2024-03-23T09:43:33;7.00;;;2.10;;
8654;SDS011;13500;52.514;13.462;2024-03-23T09:46:01;6.17;;;1.97;;
8654;SDS011;13500;52.514;13.462;2024-03-23T09:48:29;4.33;;;2.10;;
8654;SDS011;13500;52.514;13.462;2024-03-23T09:50:55;5.23;;;1.97;;
8654;SDS011;13500;52.514;13.462;2024-03-23T09:53:26;4.50;;;2.13;;
8654;SDS011;13500;52.514;13.462;2024-03-23T09:55:54;7.13;;;2.30;;
8654;SDS011;13500;52.514;13.462;2024-03-23T09:58:23;9.00;;;2.80;;
8654;SDS011;13500;52.514;13.462;2024-03-23T10:00:50;10.63;;;3.10;;
8654;SDS011;13500;52.514;13.462;2024-03-23T10:03:19;6.60;;;2.80;;
8654;SDS011;13500;52.514;13.462;2024-03-23T10:05:45;10.33;;;3.23;;
8654;SDS011;13500;52.514;13.462;2024-03-23T10:08:17;7.00;;;2.60;;
8654;SDS011;13500;52.514;13.462;2024-03-23T10:11:12;6.97;;;2.53;;
8654;SDS011;13500;52.514;13.462;2024-03-23T10:13:41;6.00;;;2.63;;
8654;SDS011;13500;52.514;13.462;2024-03-23T10:16:08;7.30;;;2.20;;
8654;SDS011;13500;52.514;13.462;2024-03-23T10:18:39;6.43;;;2.40;;
8654;SDS011;13500;52.514;13.462;2024-03-23T10:21:07;8.33;;;2.70;;
8654;SDS011;13500;52.514;13.462;2024-03-23T10:23:38;7.80;;;2.17;;
8654;SDS011;13500;52.514;13.462;2024-03-23T10:26:14;3.60;;;2.20;;
8654;SDS011;13500;52.514;13.462;2024-03-23T10:28:53;5.70;;;2.37;;
8654;SDS011;13500;52.514;13.462;2024-03-23T10:31:24;7.13;;;2.23;;
8654;SDS011;13500;52.514;13.462;2024-03-23T10:33:51;5.70;;;2.20;;
8654;SDS011;13500;52.514;13.462;2024-03-23T10:36:20;7.17;;;2.23;;
8654;SDS011;13500;52.514;13.462;2024-03-23T10:38:51;10.43;;;2.70;;
8654;SDS011;13500;52.514;13.462;2024-03-23T10:41:20;6.47;;;2.33;;
8654;SDS011;13500;52.514;13.462;2024-03-23T10:43:48;9.20;;;3.03;;
8654;SDS011;13500;52.514;13.462;2024-03-23T10:46:16;9.97;;;2.47;;
8654;SDS011;13500;52.514;13.462;2024-03-23T10:48:45;7.90;;;2.57;;
8654;SDS011;13500;52.514;13.462;2024-03-23T10:51:14;5.73;;;2.33;;
8654;SDS011;13500;52.514;13.462;2024-03-23T10:53:41;7.57;;;2.47;;
8654;SDS011;13500;52.514;13.462;2024-03-23T10:56:10;8.37;;;2.50;;
8654;SDS011;13500;52.514;13.462;2024-03-23T10:58:38;8.67;;;2.57;;
8654;SDS011;13500;52.514;13.462;2024-03-23T11:01:06;6.47;;;2.37;;
8654;SDS011;13500;52.514;13.462;2024-03-23T11:03:36;9.77;;;2.90;;
8654;SDS011;13500;52.514;13.462;2024-03-23T11:06:03;8.20;;;2.43;;
8654;SDS011;13500;52.514;13.462;2024-03-23T11:08:32;5.97;;;2.60;;
8654;SDS011;13500;52.514;13.462;2024-03-23T11:11:15;8.33;;;2.80;;
8654;SDS011;13500;52.514;13.462;2024-03-23T11:13:47;9.50;;;3.07;;
8654;SDS011;13500;52.514;13.462;2024-03-23T11:16:14;7.90;;;2.90;;
8654;SDS011;13500;52.514;13.462;2024-03-23T11:18:43;6.87;;;2.70;;
8654;SDS011;13500;52.514;13.462;2024-03-23T11:21:10;9.37;;;2.50;;
8654;SDS011;13500;52.514;13.462;2024-03-23T11:23:38;13.87;;;3.57;;
8654;SDS011;13500;52.514;13.462;2024-03-23T11:26:07;10.33;;;3.27;;
8654;SDS011;13500;52.514;13.462;2024-03-23T11:28:36;7.70;;;2.47;;
8654;SDS011;13500;52.514;13.462;2024-03-23T11:31:09;6.90;;;2.73;;
8654;SDS011;13500;52.514;13.462;2024-03-23T11:33:40;8.20;;;3.13;;
8654;SDS011;13500;52.514;13.462;2024-03-23T11:36:07;8.00;;;2.57;;
8654;SDS011;13500;52.514;13.462;2024-03-23T11:38:36;7.43;;;2.60;;
8654;SDS011;13500;52.514;13.462;2024-03-23T11:41:03;6.27;;;2.50;;
8654;SDS011;13500;52.514;13.462;2024-03-23T11:43:30;6.97;;;2.63;;
8654;SDS011;13500;52.514;13.462;2024-03-23T11:46:00;5.73;;;2.73;;
8654;SDS011;13500;52.514;13.462;2024-03-23T11:48:30;7.60;;;2.50;;
8654;SDS011;13500;52.514;13.462;2024-03-23T11:50:58;6.53;;;2.83;;
8654;SDS011;13500;52.514;13.462;2024-03-23T11:53:26;7.77;;;3.17;;
8654;SDS011;13500;52.514;13.462;2024-03-23T11:55:53;7.37;;;3.03;;
8654;SDS011;13500;52.514;13.462;2024-03-23T11:58:24;10.37;;;3.67;;
8654;SDS011;13500;52.514;13.462;2024-03-23T12:00:55;12.43;;;5.40;;
8654;SDS011;13500;52.514;13.462;2024-03-23T12:03:26;8.63;;;4.00;;
8654;SDS011;13500;52.514;13.462;2024-03-23T12:05:54;8.53;;;3.23;;
8654;SDS011;13500;52.514;13.462;2024-03-23T12:08:23;11.23;;;3.93;;
8654;SDS011;13500;52.514;13.462;2024-03-23T12:10:51;13.03;;;3.90;;
8654;SDS011;13500;52.514;13.462;2024-03-23T12:13:20;6.43;;;3.07;;
8654;SDS011;13500;52.514;13.462;2024-03-23T12:15:49;10.90;;;3.10;;
8654;SDS011;13500;52.514;13.462;2024-03-23T12:18:17;9.27;;;2.93;;
8654;SDS011;13500;52.514;13.462;2024-03-23T12:20:52;7.83;;;3.40;;
8654;SDS011;13500;52.514;13.462;2024-03-23T12:23:19;9.07;;;3.23;;
8654;SDS011;13500;52.514;13.462;2024-03-23T12:25:48;8.93;;;3.33;;
8654;SDS011;13500;52.514;13.462;2024-03-23T12:28:16;8.97;;;2.63;;
8654;SDS011;13500;52.514;13.462;2024-03-23T12:30:42;8.80;;;3.50;;
8654;SDS011;13500;52.514;13.462;2024-03-23T12:33:10;6.80;;;2.43;;
8654;SDS011;13500;52.514;13.462;2024-03-23T12:35:40;9.20;;;2.63;;
8654;SDS011;13500;52.514;13.462;2024-03-23T12:38:06;8.50;;;2.33;;
8654;SDS011;13500;52.514;13.462;2024-03-23T12:40:33;8.97;;;2.67;;
8654;SDS011;13500;52.514;13.462;2024-03-23T12:43:01;5.93;;;2.20;;
8654;SDS011;13500;52.514;13.462;2024-03-23T12:45:29;6.20;;;2.50;;
8654;SDS011;13500;52.514;13.462;2024-03-23T12:47:56;8.77;;;2.83;;
8654;SDS011;13500;52.514;13.462;2024-03-23T12:50:23;9.40;;;2.73;;
8654;SDS011;13500;52.514;13.462;2024-03-23T12:52:51;9.80;;;2.90;;
8654;SDS011;13500;52.514;13.462;2024-03-23T12:55:19;6.90;;;2.50;;
8654;SDS011;13500;52.514;13.462;2024-03-23T12:57:46;9.10;;;2.90;;
8654;SDS011;13500;52.514;13.462;2024-03-23T13:00:14;8.30;;;2.40;;
8654;SDS011;13500;52.514;13.462;2024-03-23T13:02:42;6.63;;;2.33;;
8654;SDS011;13500;52.514;13.462;2024-03-23T13:05:10;5.73;;;2.40;;
8654;SDS011;13500;52.514;13.462;2024-03-23T13:07:36;9.10;;;2.60;;
8654;SDS011;13500;52.514;13.462;2024-03-23T13:10:07;5.33;;;1.77;;
8654;SDS011;13500;52.514;13.462;2024-03-23T13:12:34;4.07;;;1.60;;
8654;SDS011;13500;52.514;13.462;2024-03-23T13:15:02;3.83;;;1.90;;
8654;SDS011;13500;52.514;13.462;2024-03-23T13:17:30;9.00;;;2.67;;
8654;SDS011;13500;52.514;13.462;2024-03-23T13:20:00;5.43;;;2.30;;
8654;SDS011;13500;52.514;13.462;2024-03-23T13:22:26;8.90;;;2.40;;
8654;SDS011;13500;52.514;13.462;2024-03-23T13:24:53;5.67;;;2.30;;
8654;SDS011;13500;52.514;13.462;2024-03-23T13:27:21;7.60;;;2.87;;
8654;SDS011;13500;52.514;13.462;2024-03-23T13:29:49;6.10;;;2.50;;
8654;SDS011;13500;52.514;13.462;2024-03-23T13:32:16;6.13;;;2.40;;
8654;SDS011;13500;52.514;13.462;2024-03-23T13:34:44;9.10;;;2.80;;
8654;SDS011;13500;52.514;13.462;2024-03-23T13:37:11;7.23;;;2.77;;
8654;SDS011;13500;52.514;13.462;2024-03-23T13:39:38;8.23;;;3.10;;
8654;SDS011;13500;52.514;13.462;2024-03-23T13:42:06;10.33;;;3.47;;
8654;SDS011;13500;52.514;13.462;2024-03-23T13:44:36;8.47;;;3.63;;
8654;SDS011;13500;52.514;13.462;2024-03-23T13:47:02;5.43;;;2.80;;
8654;SDS011;13500;52.514;13.462;2024-03-23T13:49:30;8.40;;;3.10;;
8654;SDS011;13500;52.514;13.462;2024-03-23T13:51:58;8.20;;;3.00;;
8654;SDS011;13500;52.514;13.462;2024-03-23T13:54:26;6.73;;;2.30;;
8654;SDS011;13500;52.514;13.462;2024-03-23T13:56:52;8.90;;;2.97;;
8654;SDS011;13500;52.514;13.462;2024-03-23T13:59:21;6.40;;;4.03;;
8654;SDS011;13500;52.514;13.462;2024-03-23T14:01:51;8.47;;;2.83;;
8654;SDS011;13500;52.514;13.462;2024-03-23T14:04:19;6.47;;;2.53;;
8654;SDS011;13500;52.514;13.462;2024-03-23T14:06:47;8.30;;;3.13;;
8654;SDS011;13500;52.514;13.462;2024-03-23T14:09:14;8.07;;;2.90;;
8654;SDS011;13500;52.514;13.462;2024-03-23T14:11:47;8.13;;;3.07;;
8654;SDS011;13500;52.514;13.462;2024-03-23T14:14:15;8.17;;;3.40;;
8654;SDS011;13500;52.514;13.462;2024-03-23T14:16:43;10.73;;;3.83;;
8654;SDS011;13500;52.514;13.462;2024-03-23T14:19:13;9.07;;;3.10;;
8654;SDS011;13500;52.514;13.462;2024-03-23T14:21:39;10.90;;;3.40;;
8654;SDS011;13500;52.514;13.462;2024-03-23T14:24:07;8.63;;;3.37;;
8654;SDS011;13500;52.514;13.462;2024-03-23T14:26:34;9.17;;;3.40;;
8654;SDS011;13500;52.514;13.462;2024-03-23T14:29:06;12.47;;;3.80;;
8654;SDS011;13500;52.514;13.462;2024-03-23T14:31:34;10.43;;;3.40;;
8654;SDS011;13500;52.514;13.462;2024-03-23T14:34:04;9.33;;;3.50;;
8654;SDS011;13500;52.514;13.462;2024-03-23T14:36:32;11.40;;;3.30;;
8654;SDS011;13500;52.514;13.462;2024-03-23T14:39:00;8.47;;;3.20;;
8654;SDS011;13500;52.514;13.462;2024-03-23T14:41:27;8.37;;;3.47;;
8654;SDS011;13500;52.514;13.462;2024-03-23T14:43:55;12.10;;;3.17;;
8654;SDS011;13500;52.514;13.462;2024-03-23T14:46:22;8.70;;;3.10;;
8654;SDS011;13500;52.514;13.462;2024-03-23T14:48:50;5.77;;;2.87;;
8654;SDS011;13500;52.514;13.462;2024-03-23T14:51:17;7.07;;;2.70;;
8654;SDS011;13500;52.514;13.462;2024-03-23T14:53:49;3.57;;;2.10;;
8654;SDS011;13500;52.514;13.462;2024-03-23T14:56:15;7.73;;;2.87;;
8654;SDS011;13500;52.514;13.462;2024-03-23T14:58:43;7.30;;;2.13;;
8654;SDS011;13500;52.514;13.462;2024-03-23T15:01:11;9.03;;;3.00;;
8654;SDS011;13500;52.514;13.462;2024-03-23T15:03:38;13.43;;;3.77;;
8654;SDS011;13500;52.514;13.462;2024-03-23T15:06:05;5.47;;;2.50;;
8654;SDS011;13500;52.514;13.462;2024-03-23T15:08:36;4.30;;;2.53;;
8654;SDS011;13500;52.514;13.462;2024-03-23T15:11:05;5.83;;;2.27;;
8654;SDS011;13500;52.514;13.462;2024-03-23T15:13:32;6.63;;;3.17;;
8654;SDS011;13500;52.514;13.462;2024-03-23T15:15:59;6.63;;;3.10;;
8654;SDS011;13500;52.514;13.462;2024-03-23T15:18:26;8.87;;;3.50;;
8654;SDS011;13500;52.514;13.462;2024-03-23T15:20:53;8.97;;;3.50;;
8654;SDS011;13500;52.514;13.462;2024-03-23T15:23:21;8.10;;;3.60;;
8654;SDS011;13500;52.514;13.462;2024-03-23T15:25:53;6.57;;;3.83;;
8654;SDS011;13500;52.514;13.462;2024-03-23T15:28:23;9.67;;;4.20;;
8654;SDS011;13500;52.514;13.462;2024-03-23T15:30:49;9.33;;;4.10;;
8654;SDS011;13500;52.514;13.462;2024-03-23T15:33:17;8.20;;;3.70;;
8654;SDS011;13500;52.514;13.462;2024-03-23T15:35:45;8.67;;;3.63;;
8654;SDS011;13500;52.514;13.462;2024-03-23T15:38:12;8.23;;;3.60;;
8654;SDS011;13500;52.514;13.462;2024-03-23T15:40:39;5.87;;;3.37;;
8654;SDS011;13500;52.514;13.462;2024-03-23T15:43:06;6.20;;;3.07;;
8654;SDS011;13500;52.514;13.462;2024-03-23T15:45:34;4.97;;;2.80;;